createdAt,value
2017-08-28T00:00:06.326Z,0
2017-08-28T00:01:06.587Z,0
2017-08-28T00:02:06.961Z,0
2017-08-28T00:03:06.499Z,0
2017-08-28T00:04:06.869Z,0
2017-08-28T00:05:06.295Z,0
2017-08-28T00:06:06.973Z,0
2017-08-28T00:07:06.610Z,0
2017-08-28T00:08:06.459Z,0
2017-08-28T00:09:06.834Z,0
2017-08-28T00:10:06.879Z,0
2017-08-28T00:11:06.628Z,0
2017-08-28T00:12:07.322Z,0
2017-08-28T00:13:07.054Z,0
2017-08-28T00:14:07.119Z,0
2017-08-28T00:15:07.479Z,0
2017-08-28T00:16:07.530Z,0
2017-08-28T00:17:07.581Z,0
2017-08-28T00:18:07.651Z,0
2017-08-28T00:19:07.394Z,0
2017-08-28T00:20:07.761Z,0
2017-08-28T00:21:07.813Z,0
2017-08-28T00:22:07.868Z,0
2017-08-28T00:23:08.158Z,0
2017-08-28T00:24:07.674Z,0
2017-08-28T00:25:07.409Z,0
2017-08-28T00:26:07.796Z,0
2017-08-28T00:27:07.841Z,0
2017-08-28T00:28:07.894Z,0
2017-08-28T00:29:07.945Z,0
2017-08-28T00:30:08.322Z,0
2017-08-28T00:31:08.395Z,0
2017-08-28T00:32:08.113Z,0
2017-08-28T00:33:08.168Z,0
2017-08-28T00:34:08.758Z,0
2017-08-28T00:35:08.601Z,0
2017-08-28T00:36:08.335Z,0
2017-08-28T00:37:08.704Z,0
2017-08-28T00:38:08.768Z,0
2017-08-28T00:39:08.828Z,0
2017-08-28T00:40:08.575Z,0
2017-08-28T00:41:08.633Z,0
2017-08-28T00:42:08.684Z,0
2017-08-28T00:43:08.948Z,0
2017-08-28T00:44:09.105Z,0
2017-08-28T00:45:09.190Z,0
2017-08-28T00:46:08.912Z,0
2017-08-28T00:47:09.273Z,0
2017-08-28T00:48:09.020Z,0
2017-08-28T00:49:09.081Z,0
2017-08-28T00:50:09.449Z,0
2017-08-28T00:51:09.504Z,0
2017-08-28T00:52:09.549Z,0
2017-08-28T00:53:09.625Z,0
2017-08-28T00:54:09.670Z,0
2017-08-28T00:55:09.726Z,0
2017-08-28T00:56:09.777Z,0
2017-08-28T00:57:09.205Z,0
2017-08-28T00:58:09.588Z,0
2017-08-28T00:59:09.952Z,0
2017-08-28T01:00:10.002Z,0
2017-08-28T01:01:10.074Z,0
2017-08-28T01:02:10.123Z,0
2017-08-28T01:03:10.176Z,0
2017-08-28T01:04:09.913Z,0
2017-08-28T01:05:09.971Z,0
2017-08-28T01:06:09.713Z,0
2017-08-28T01:07:10.079Z,0
2017-08-28T01:08:10.452Z,0
2017-08-28T01:09:10.506Z,0
2017-08-28T01:10:10.785Z,0
2017-08-28T01:11:10.618Z,0
2017-08-28T01:12:10.671Z,0
2017-08-28T01:13:10.722Z,0
2017-08-28T01:14:10.785Z,0
2017-08-28T01:15:11.062Z,0
2017-08-28T01:16:10.904Z,0
2017-08-28T01:17:10.652Z,0
2017-08-28T01:18:11.012Z,0
2017-08-28T01:19:10.755Z,0
2017-08-28T01:20:11.124Z,0
2017-08-28T01:21:10.869Z,0
2017-08-28T01:22:11.234Z,0
2017-08-28T01:23:10.980Z,0
2017-08-28T01:24:11.354Z,0
2017-08-28T01:25:11.100Z,0
2017-08-28T01:26:11.465Z,0
2017-08-28T01:27:11.205Z,0
2017-08-28T01:28:11.569Z,0
2017-08-28T01:29:11.631Z,0
2017-08-28T01:30:11.369Z,0
2017-08-28T01:31:11.733Z,0
2017-08-28T01:32:11.791Z,0
2017-08-28T01:33:11.860Z,0
2017-08-28T01:34:11.917Z,0
2017-08-28T01:35:11.974Z,0
2017-08-28T01:36:12.012Z,0
2017-08-28T01:37:11.964Z,0
2017-08-28T01:38:11.816Z,0
2017-08-28T01:39:11.873Z,0
2017-08-28T01:40:12.242Z,0
2017-08-28T01:41:12.498Z,0
2017-08-28T01:42:12.570Z,0
2017-08-28T01:43:12.414Z,0
2017-08-28T01:44:12.466Z,0
2017-08-28T01:45:12.519Z,0
2017-08-28T01:46:26.213Z,0
2017-08-28T01:47:12.646Z,0
2017-08-28T01:48:12.704Z,0
2017-08-28T01:49:12.751Z,0
2017-08-28T01:50:12.796Z,0
2017-08-28T01:51:26.756Z,0
2017-08-28T01:52:12.935Z,0
2017-08-28T01:53:12.972Z,0
2017-08-28T01:54:12.716Z,0
2017-08-28T01:55:13.096Z,0
2017-08-28T01:56:13.149Z,0
2017-08-28T01:57:13.195Z,0
2017-08-28T01:58:13.254Z,0
2017-08-28T01:59:13.300Z,0
2017-08-28T02:00:13.392Z,0
2017-08-28T02:01:13.414Z,0
2017-08-28T02:02:13.475Z,0
2017-08-28T02:03:13.532Z,0
2017-08-28T02:04:13.590Z,0
2017-08-28T02:05:13.350Z,0
2017-08-28T02:06:13.711Z,0
2017-08-28T02:07:13.442Z,0
2017-08-28T02:08:13.848Z,0
2017-08-28T02:09:13.870Z,0
2017-08-28T02:10:13.933Z,0
2017-08-28T02:11:13.975Z,0
2017-08-28T02:12:14.030Z,0
2017-08-28T02:13:13.781Z,0
2017-08-28T02:14:14.147Z,0
2017-08-28T02:15:13.889Z,0
2017-08-28T02:16:14.260Z,0
2017-08-28T02:17:27.954Z,0
2017-08-28T02:18:28.008Z,0
2017-08-28T02:19:14.433Z,0
2017-08-28T02:20:14.483Z,0
2017-08-28T02:21:14.539Z,0
2017-08-28T02:22:14.598Z,0
2017-08-28T02:23:14.541Z,0
2017-08-28T02:24:14.722Z,0
2017-08-28T02:25:14.768Z,0
2017-08-28T02:26:14.818Z,0
2017-08-28T02:27:14.869Z,0
2017-08-28T02:28:14.929Z,0
2017-08-28T02:29:14.689Z,0
2017-08-28T02:30:14.731Z,0
2017-08-28T02:31:15.101Z,0
2017-08-28T02:32:14.858Z,0
2017-08-28T02:33:15.225Z,0
2017-08-28T02:34:15.264Z,0
2017-08-28T02:35:15.018Z,0
2017-08-28T02:36:15.389Z,0
2017-08-28T02:37:15.431Z,0
2017-08-28T02:38:15.183Z,0
2017-08-28T02:39:15.238Z,0
2017-08-28T02:40:15.298Z,0
2017-08-28T02:41:15.346Z,0
2017-08-28T02:42:15.723Z,0
2017-08-28T02:43:15.808Z,0
2017-08-28T02:44:15.827Z,0
2017-08-28T02:45:15.876Z,0
2017-08-28T02:46:15.939Z,0
2017-08-28T02:47:16.000Z,0
2017-08-28T02:48:16.063Z,0
2017-08-28T02:49:16.110Z,0
2017-08-28T02:50:15.858Z,0
2017-08-28T02:51:15.908Z,0
2017-08-28T02:52:15.966Z,0
2017-08-28T02:53:16.338Z,0
2017-08-28T02:54:16.390Z,0
2017-08-28T02:55:16.140Z,0
2017-08-28T02:56:16.517Z,0
2017-08-28T02:57:16.561Z,0
2017-08-28T02:58:16.610Z,0
2017-08-28T02:59:16.658Z,0
2017-08-28T03:00:16.412Z,0
2017-08-28T03:01:16.785Z,0
2017-08-28T03:02:16.844Z,0
2017-08-28T03:03:16.892Z,0
2017-08-28T03:04:16.938Z,0
2017-08-28T03:05:16.997Z,0
2017-08-28T03:06:17.063Z,0
2017-08-28T03:07:17.123Z,0
2017-08-28T03:08:17.179Z,0
2017-08-28T03:09:17.226Z,0
2017-08-28T03:10:16.980Z,0
2017-08-28T03:11:17.340Z,0
2017-08-28T03:12:17.394Z,0
2017-08-28T03:13:17.450Z,0
2017-08-28T03:14:17.504Z,0
2017-08-28T03:15:17.557Z,0
2017-08-28T03:16:17.614Z,0
2017-08-28T03:17:17.673Z,0
2017-08-28T03:18:17.735Z,0
2017-08-28T03:19:17.782Z,0
2017-08-28T03:20:17.528Z,0
2017-08-28T03:21:17.902Z,0
2017-08-28T03:22:17.950Z,0
2017-08-28T03:23:18.006Z,0
2017-08-28T03:24:18.063Z,0
2017-08-28T03:25:18.118Z,0
2017-08-28T03:26:18.169Z,0
2017-08-28T03:27:18.221Z,0
2017-08-28T03:28:18.289Z,0
2017-08-28T03:29:18.345Z,0
2017-08-28T03:30:18.407Z,0
2017-08-28T03:31:18.455Z,0
2017-08-28T03:32:18.502Z,0
2017-08-28T03:33:18.575Z,0
2017-08-28T03:34:18.612Z,0
2017-08-28T03:35:18.689Z,0
2017-08-28T03:36:18.737Z,0
2017-08-28T03:37:18.796Z,0
2017-08-28T03:38:18.850Z,0
2017-08-28T03:39:18.906Z,0
2017-08-28T03:40:18.958Z,0
2017-08-28T03:41:19.014Z,0
2017-08-28T03:42:19.076Z,0
2017-08-28T03:43:19.152Z,0
2017-08-28T03:44:18.873Z,0
2017-08-28T03:45:19.229Z,0
2017-08-28T03:46:19.306Z,0
2017-08-28T03:47:19.357Z,0
2017-08-28T03:48:19.101Z,0
2017-08-28T03:49:19.455Z,0
2017-08-28T03:50:19.515Z,0
2017-08-28T03:51:19.568Z,0
2017-08-28T03:52:19.317Z,0
2017-08-28T03:53:19.690Z,0
2017-08-28T03:54:19.427Z,0
2017-08-28T03:55:19.789Z,0
2017-08-28T03:56:19.857Z,0
2017-08-28T03:57:19.286Z,0
2017-08-28T03:58:19.973Z,0
2017-08-28T03:59:19.402Z,0
2017-08-28T04:00:20.069Z,0
2017-08-28T04:01:20.134Z,0
2017-08-28T04:02:20.197Z,0
2017-08-28T04:03:20.244Z,0
2017-08-28T04:04:20.296Z,0
2017-08-28T04:05:20.347Z,0
2017-08-28T04:06:20.415Z,0
2017-08-28T04:07:20.457Z,0
2017-08-28T04:08:20.534Z,0
2017-08-28T04:09:20.275Z,0
2017-08-28T04:10:20.328Z,0
2017-08-28T04:11:20.697Z,0
2017-08-28T04:12:20.439Z,0
2017-08-28T04:13:20.488Z,0
2017-08-28T04:14:20.863Z,0
2017-08-28T04:15:20.918Z,0
2017-08-28T04:16:20.960Z,0
2017-08-28T04:17:20.713Z,4
2017-08-28T04:18:21.073Z,4
2017-08-28T04:19:21.137Z,0
2017-08-28T04:20:21.192Z,4
2017-08-28T04:21:21.253Z,4
2017-08-28T04:22:21.308Z,4
2017-08-28T04:23:21.367Z,4
2017-08-28T04:24:21.418Z,4
2017-08-28T04:25:21.471Z,4
2017-08-28T04:26:21.215Z,4
2017-08-28T04:27:21.589Z,4
2017-08-28T04:28:21.639Z,4
2017-08-28T04:29:21.712Z,4
2017-08-28T04:30:21.747Z,0
2017-08-28T04:31:21.812Z,0
2017-08-28T04:32:21.868Z,4
2017-08-28T04:33:21.917Z,4
2017-08-28T04:34:21.971Z,4
2017-08-28T04:35:22.040Z,4
2017-08-28T04:36:22.081Z,4
2017-08-28T04:37:22.145Z,8
2017-08-28T04:38:22.190Z,8
2017-08-28T04:39:22.262Z,8
2017-08-28T04:40:22.308Z,12
2017-08-28T04:41:22.358Z,8
2017-08-28T04:42:22.428Z,12
2017-08-28T04:43:22.491Z,12
2017-08-28T04:44:22.538Z,12
2017-08-28T04:45:22.596Z,12
2017-08-28T04:46:22.656Z,16
2017-08-28T04:47:22.737Z,12
2017-08-28T04:48:22.780Z,16
2017-08-28T04:49:22.815Z,16
2017-08-28T04:50:22.877Z,20
2017-08-28T04:51:22.918Z,20
2017-08-28T04:52:22.987Z,20
2017-08-28T04:53:22.723Z,20
2017-08-28T04:54:23.096Z,24
2017-08-28T04:55:23.170Z,24
2017-08-28T04:56:22.891Z,24
2017-08-28T04:57:23.272Z,24
2017-08-28T04:58:23.326Z,28
2017-08-28T04:59:23.375Z,24
2017-08-28T05:00:23.433Z,28
2017-08-28T05:01:23.186Z,32
2017-08-28T05:02:23.547Z,28
2017-08-28T05:03:23.598Z,32
2017-08-28T05:04:23.680Z,32
2017-08-28T05:05:23.706Z,32
2017-08-28T05:06:23.767Z,36
2017-08-28T05:07:23.818Z,36
2017-08-28T05:08:23.585Z,36
2017-08-28T05:09:23.945Z,36
2017-08-28T05:10:23.676Z,40
2017-08-28T05:11:23.742Z,36
2017-08-28T05:12:23.781Z,40
2017-08-28T05:13:24.158Z,40
2017-08-28T05:14:24.209Z,40
2017-08-28T05:15:24.268Z,40
2017-08-28T05:16:24.315Z,44
2017-08-28T05:17:24.387Z,44
2017-08-28T05:18:24.122Z,48
2017-08-28T05:19:24.185Z,48
2017-08-28T05:20:24.545Z,52
2017-08-28T05:21:24.604Z,52
2017-08-28T05:22:24.658Z,56
2017-08-28T05:23:24.722Z,52
2017-08-28T05:24:24.777Z,56
2017-08-28T05:25:24.834Z,56
2017-08-28T05:26:24.612Z,60
2017-08-28T05:27:24.635Z,60
2017-08-28T05:28:24.996Z,60
2017-08-28T05:29:24.431Z,64
2017-08-28T05:30:25.110Z,60
2017-08-28T05:31:25.174Z,64
2017-08-28T05:32:25.222Z,64
2017-08-28T05:33:25.271Z,68
2017-08-28T05:34:25.340Z,64
2017-08-28T05:35:25.088Z,68
2017-08-28T05:36:25.444Z,68
2017-08-28T05:37:25.501Z,72
2017-08-28T05:38:25.550Z,72
2017-08-28T05:39:25.612Z,72
2017-08-28T05:40:25.664Z,72
2017-08-28T05:41:25.717Z,76
2017-08-28T05:42:25.784Z,76
2017-08-28T05:43:25.836Z,76
2017-08-28T05:44:25.898Z,80
2017-08-28T05:45:25.942Z,76
2017-08-28T05:46:26.009Z,80
2017-08-28T05:47:26.061Z,80
2017-08-28T05:48:26.109Z,84
2017-08-28T05:49:26.171Z,84
2017-08-28T05:50:26.218Z,88
2017-08-28T05:51:26.288Z,88
2017-08-28T05:52:26.335Z,92
2017-08-28T05:53:26.389Z,92
2017-08-28T05:54:26.448Z,92
2017-08-28T05:55:26.511Z,96
2017-08-28T05:56:26.254Z,100
2017-08-28T05:57:26.311Z,100
2017-08-28T05:58:26.052Z,100
2017-08-28T05:59:26.421Z,104
2017-08-28T06:00:26.790Z,104
2017-08-28T06:01:26.836Z,104
2017-08-28T06:02:26.892Z,104
2017-08-28T06:03:26.963Z,104
2017-08-28T06:04:27.014Z,104
2017-08-28T06:05:27.054Z,104
2017-08-28T06:06:27.118Z,104
2017-08-28T06:07:27.178Z,108
2017-08-28T06:08:27.235Z,104
2017-08-28T06:09:27.277Z,108
2017-08-28T06:10:27.022Z,108
2017-08-28T06:11:27.397Z,108
2017-08-28T06:12:27.463Z,108
2017-08-28T06:13:27.508Z,112
2017-08-28T06:14:27.565Z,112
2017-08-28T06:15:27.623Z,112
2017-08-28T06:16:27.683Z,112
2017-08-28T06:17:27.735Z,112
2017-08-28T06:18:27.792Z,108
2017-08-28T06:19:27.840Z,104
2017-08-28T06:20:27.892Z,104
2017-08-28T06:21:27.964Z,104
2017-08-28T06:22:28.012Z,104
2017-08-28T06:23:28.074Z,104
2017-08-28T06:24:28.126Z,104
2017-08-28T06:25:28.178Z,104
2017-08-28T06:26:28.236Z,100
2017-08-28T06:27:28.304Z,104
2017-08-28T06:28:28.349Z,108
2017-08-28T06:29:28.092Z,116
2017-08-28T06:30:28.159Z,124
2017-08-28T06:31:28.208Z,132
2017-08-28T06:32:28.573Z,140
2017-08-28T06:33:28.632Z,148
2017-08-28T06:34:28.690Z,152
2017-08-28T06:35:28.739Z,160
2017-08-28T06:36:28.795Z,168
2017-08-28T06:37:28.550Z,172
2017-08-28T06:38:28.910Z,168
2017-08-28T06:39:28.964Z,168
2017-08-28T06:40:29.020Z,168
2017-08-28T06:41:29.076Z,180
2017-08-28T06:42:29.132Z,196
2017-08-28T06:43:29.186Z,196
2017-08-28T06:44:29.234Z,204
2017-08-28T06:45:29.311Z,204
2017-08-28T06:46:29.348Z,204
2017-08-28T06:47:29.098Z,204
2017-08-28T06:48:29.160Z,196
2017-08-28T06:49:29.527Z,204
2017-08-28T06:50:29.276Z,220
2017-08-28T06:51:29.640Z,224
2017-08-28T06:52:29.689Z,224
2017-08-28T06:53:29.759Z,220
2017-08-28T06:54:29.800Z,220
2017-08-28T06:55:29.852Z,208
2017-08-28T06:56:29.916Z,208
2017-08-28T06:57:29.972Z,212
2017-08-28T06:58:30.027Z,212
2017-08-28T06:59:30.081Z,212
2017-08-28T07:00:30.140Z,216
2017-08-28T07:01:30.205Z,220
2017-08-28T07:02:29.939Z,228
2017-08-28T07:03:30.301Z,228
2017-08-28T07:04:30.045Z,232
2017-08-28T07:05:30.427Z,244
2017-08-28T07:06:30.468Z,244
2017-08-28T07:07:29.913Z,252
2017-08-28T07:08:30.596Z,264
2017-08-28T07:09:30.343Z,264
2017-08-28T07:10:30.703Z,284
2017-08-28T07:11:30.763Z,316
2017-08-28T07:12:30.824Z,340
2017-08-28T07:13:30.868Z,348
2017-08-28T07:14:30.921Z,356
2017-08-28T07:15:30.971Z,324
2017-08-28T07:16:30.718Z,324
2017-08-28T07:17:31.116Z,320
2017-08-28T07:18:31.156Z,300
2017-08-28T07:19:31.198Z,296
2017-08-28T07:20:31.251Z,296
2017-08-28T07:21:31.007Z,276
2017-08-28T07:22:31.364Z,260
2017-08-28T07:23:31.112Z,276
2017-08-28T07:24:31.479Z,272
2017-08-28T07:25:31.229Z,256
2017-08-28T07:26:31.600Z,244
2017-08-28T07:27:31.341Z,248
2017-08-28T07:28:31.393Z,272
2017-08-28T07:29:31.768Z,292
2017-08-28T07:30:31.506Z,300
2017-08-28T07:31:31.872Z,332
2017-08-28T07:32:31.924Z,376
2017-08-28T07:33:31.988Z,364
2017-08-28T07:34:32.039Z,516
2017-08-28T07:35:31.473Z,496
2017-08-28T07:36:32.153Z,444
2017-08-28T07:37:32.221Z,456
2017-08-28T07:38:32.266Z,400
2017-08-28T07:39:32.336Z,352
2017-08-28T07:40:32.383Z,352
2017-08-28T07:41:32.430Z,344
2017-08-28T07:42:32.492Z,340
2017-08-28T07:43:32.550Z,340
2017-08-28T07:44:32.608Z,416
2017-08-28T07:45:32.660Z,472
2017-08-28T07:46:32.718Z,476
2017-08-28T07:47:32.781Z,432
2017-08-28T07:48:32.833Z,424
2017-08-28T07:49:32.897Z,380
2017-08-28T07:50:32.951Z,440
2017-08-28T07:51:32.698Z,340
2017-08-28T07:52:33.064Z,332
2017-08-28T07:53:32.800Z,264
2017-08-28T07:54:33.174Z,240
2017-08-28T07:55:33.218Z,224
2017-08-28T07:56:33.280Z,208
2017-08-28T07:57:33.024Z,196
2017-08-28T07:58:33.075Z,196
2017-08-28T07:59:33.135Z,196
2017-08-28T08:00:33.197Z,228
2017-08-28T08:01:33.553Z,300
2017-08-28T08:02:33.622Z,352
2017-08-28T08:03:33.676Z,328
2017-08-28T08:04:33.729Z,288
2017-08-28T08:05:33.777Z,312
2017-08-28T08:06:33.850Z,328
2017-08-28T08:07:33.892Z,340
2017-08-28T08:08:33.952Z,364
2017-08-28T08:09:34.009Z,312
2017-08-28T08:10:34.068Z,324
2017-08-28T08:11:34.119Z,440
2017-08-28T08:12:33.861Z,476
2017-08-28T08:13:33.922Z,560
2017-08-28T08:14:34.297Z,504
2017-08-28T08:15:34.338Z,368
2017-08-28T08:16:34.096Z,364
2017-08-28T08:17:34.460Z,348
2017-08-28T08:18:34.200Z,348
2017-08-28T08:19:34.568Z,440
2017-08-28T08:20:34.623Z,392
2017-08-28T08:21:34.687Z,432
2017-08-28T08:22:34.743Z,460
2017-08-28T08:23:34.842Z,488
2017-08-28T08:24:34.855Z,508
2017-08-28T08:25:34.278Z,536
2017-08-28T08:26:34.660Z,504
2017-08-28T08:27:35.014Z,592
2017-08-28T08:28:35.079Z,588
2017-08-28T08:29:35.141Z,528
2017-08-28T08:30:35.195Z,652
2017-08-28T08:31:35.252Z,528
2017-08-28T08:32:35.304Z,592
2017-08-28T08:33:35.357Z,652
2017-08-28T08:34:35.414Z,496
2017-08-28T08:35:35.473Z,520
2017-08-28T08:36:35.514Z,548
2017-08-28T08:37:35.580Z,532
2017-08-28T08:38:35.640Z,480
2017-08-28T08:39:35.699Z,464
2017-08-28T08:40:35.763Z,452
2017-08-28T08:41:35.811Z,440
2017-08-28T08:42:35.850Z,488
2017-08-28T08:43:35.602Z,524
2017-08-28T08:44:35.985Z,592
2017-08-28T08:45:35.730Z,448
2017-08-28T08:46:36.081Z,416
2017-08-28T08:47:36.148Z,412
2017-08-28T08:48:36.201Z,424
2017-08-28T08:49:36.270Z,448
2017-08-28T08:50:36.006Z,448
2017-08-28T08:51:36.056Z,484
2017-08-28T08:52:36.102Z,520
2017-08-28T08:53:36.486Z,504
2017-08-28T08:54:36.531Z,516
2017-08-28T08:55:35.973Z,524
2017-08-28T08:56:36.641Z,548
2017-08-28T08:57:36.710Z,564
2017-08-28T08:58:36.756Z,532
2017-08-28T08:59:36.818Z,496
2017-08-28T09:00:36.562Z,496
2017-08-28T09:01:36.929Z,484
2017-08-28T09:02:36.977Z,540
2017-08-28T09:03:37.046Z,936
2017-08-28T09:04:37.102Z,608
2017-08-28T09:05:37.164Z,864
2017-08-28T09:06:36.896Z,596
2017-08-28T09:07:37.262Z,624
2017-08-28T09:08:37.343Z,1084
2017-08-28T09:09:37.388Z,1108
2017-08-28T09:10:37.446Z,1116
2017-08-28T09:11:37.183Z,628
2017-08-28T09:12:37.225Z,596
2017-08-28T09:13:37.594Z,680
2017-08-28T09:14:37.660Z,560
2017-08-28T09:15:37.718Z,652
2017-08-28T09:16:37.763Z,1088
2017-08-28T09:17:37.822Z,796
2017-08-28T09:18:37.872Z,780
2017-08-28T09:19:37.622Z,552
2017-08-28T09:20:37.998Z,996
2017-08-28T09:21:37.432Z,1152
2017-08-28T09:22:37.794Z,628
2017-08-28T09:23:38.167Z,656
2017-08-28T09:24:38.219Z,956
2017-08-28T09:25:38.282Z,728
2017-08-28T09:26:38.327Z,1172
2017-08-28T09:27:38.403Z,1084
2017-08-28T09:28:38.446Z,592
2017-08-28T09:29:38.507Z,576
2017-08-28T09:30:38.553Z,848
2017-08-28T09:31:38.621Z,936
2017-08-28T09:32:38.680Z,1036
2017-08-28T09:33:38.726Z,764
2017-08-28T09:34:38.793Z,1000
2017-08-28T09:35:38.529Z,1028
2017-08-28T09:36:38.895Z,1096
2017-08-28T09:37:38.642Z,712
2017-08-28T09:38:39.003Z,1096
2017-08-28T09:39:38.749Z,1108
2017-08-28T09:40:39.120Z,920
2017-08-28T09:41:39.172Z,1004
2017-08-28T09:42:38.919Z,1100
2017-08-28T09:43:38.976Z,1108
2017-08-28T09:44:39.347Z,584
2017-08-28T09:45:39.402Z,1028
2017-08-28T09:46:39.456Z,940
2017-08-28T09:47:39.518Z,980
2017-08-28T09:48:39.569Z,1172
2017-08-28T09:49:39.659Z,1260
2017-08-28T09:50:39.365Z,740
2017-08-28T09:51:39.740Z,1252
2017-08-28T09:52:39.796Z,752
2017-08-28T09:53:39.850Z,1264
2017-08-28T09:54:39.899Z,900
2017-08-28T09:55:39.964Z,1128
2017-08-28T09:56:39.717Z,668
2017-08-28T09:57:40.079Z,668
2017-08-28T09:58:40.137Z,684
2017-08-28T09:59:40.187Z,716
2017-08-28T10:00:39.945Z,660
2017-08-28T10:01:40.305Z,844
2017-08-28T10:02:40.358Z,596
2017-08-28T10:03:40.413Z,536
2017-08-28T10:04:40.476Z,524
2017-08-28T10:05:40.536Z,556
2017-08-28T10:06:40.576Z,1012
2017-08-28T10:07:40.646Z,1264
2017-08-28T10:08:40.700Z,1268
2017-08-28T10:09:40.751Z,1284
2017-08-28T10:10:40.812Z,868
2017-08-28T10:11:40.879Z,740
2017-08-28T10:12:40.628Z,928
2017-08-28T10:13:40.671Z,560
2017-08-28T10:14:40.732Z,552
2017-08-28T10:15:41.087Z,508
2017-08-28T10:16:41.139Z,480
2017-08-28T10:17:41.206Z,420
2017-08-28T10:18:41.261Z,376
2017-08-28T10:19:41.319Z,412
2017-08-28T10:20:41.383Z,416
2017-08-28T10:21:41.436Z,456
2017-08-28T10:22:41.486Z,604
2017-08-28T10:23:41.546Z,700
2017-08-28T10:24:41.600Z,880
2017-08-28T10:25:41.662Z,1304
2017-08-28T10:26:41.405Z,1188
2017-08-28T10:27:41.458Z,1360
2017-08-28T10:28:41.833Z,1380
2017-08-28T10:29:41.891Z,716
2017-08-28T10:30:41.316Z,488
2017-08-28T10:31:42.005Z,516
2017-08-28T10:32:42.044Z,504
2017-08-28T10:33:41.799Z,484
2017-08-28T10:34:42.167Z,504
2017-08-28T10:35:41.909Z,824
2017-08-28T10:36:42.273Z,592
2017-08-28T10:37:42.338Z,636
2017-08-28T10:38:42.390Z,584
2017-08-28T10:39:42.131Z,488
2017-08-28T10:40:42.510Z,364
2017-08-28T10:41:42.244Z,312
2017-08-28T10:42:42.610Z,280
2017-08-28T10:43:42.686Z,256
2017-08-28T10:44:42.719Z,208
2017-08-28T10:45:42.808Z,180
2017-08-28T10:46:42.526Z,152
2017-08-28T10:47:42.278Z,140
2017-08-28T10:48:42.958Z,144
2017-08-28T10:49:43.000Z,132
2017-08-28T10:50:43.062Z,128
2017-08-28T10:51:43.118Z,184
2017-08-28T10:52:43.177Z,204
2017-08-28T10:53:43.242Z,220
2017-08-28T10:54:43.296Z,244
2017-08-28T10:55:43.349Z,244
2017-08-28T10:56:43.093Z,244
2017-08-28T10:57:43.469Z,232
2017-08-28T10:58:43.525Z,204
2017-08-28T10:59:43.579Z,204
2017-08-28T11:00:43.629Z,248
2017-08-28T11:01:43.685Z,468
2017-08-28T11:02:43.746Z,1132
2017-08-28T11:03:43.478Z,396
2017-08-28T11:04:43.845Z,368
2017-08-28T11:05:43.909Z,284
2017-08-28T11:06:43.955Z,280
2017-08-28T11:07:44.009Z,276
2017-08-28T11:08:44.077Z,288
2017-08-28T11:09:44.148Z,796
2017-08-28T11:10:43.881Z,488
2017-08-28T11:11:44.251Z,660
2017-08-28T11:12:44.308Z,944
2017-08-28T11:13:44.356Z,1236
2017-08-28T11:14:44.419Z,1284
2017-08-28T11:15:44.161Z,776
2017-08-28T11:16:44.526Z,616
2017-08-28T11:17:44.278Z,888
2017-08-28T11:18:44.649Z,1288
2017-08-28T11:19:44.698Z,1144
2017-08-28T11:20:44.753Z,988
2017-08-28T11:21:44.819Z,1036
2017-08-28T11:22:44.868Z,724
2017-08-28T11:23:44.918Z,616
2017-08-28T11:24:44.981Z,600
2017-08-28T11:25:45.043Z,540
2017-08-28T11:26:45.103Z,744
2017-08-28T11:27:45.153Z,1568
2017-08-28T11:28:45.222Z,876
2017-08-28T11:29:45.268Z,1592
2017-08-28T11:30:45.321Z,1152
2017-08-28T11:31:45.061Z,1320
2017-08-28T11:32:45.444Z,1376
2017-08-28T11:33:45.494Z,844
2017-08-28T11:34:44.920Z,472
2017-08-28T11:35:45.600Z,356
2017-08-28T11:36:45.657Z,224
2017-08-28T11:37:45.707Z,152
2017-08-28T11:38:45.771Z,144
2017-08-28T11:39:45.832Z,164
2017-08-28T11:40:45.257Z,256
2017-08-28T11:41:45.941Z,404
2017-08-28T11:42:45.994Z,664
2017-08-28T11:43:46.054Z,636
2017-08-28T11:44:46.114Z,688
2017-08-28T11:45:46.167Z,1000
2017-08-28T11:46:46.219Z,1468
2017-08-28T11:47:46.270Z,1480
2017-08-28T11:48:46.336Z,1620
2017-08-28T11:49:46.396Z,1640
2017-08-28T11:50:46.138Z,1628
2017-08-28T11:51:46.503Z,1132
2017-08-28T11:52:46.244Z,648
2017-08-28T11:53:46.618Z,1460
2017-08-28T11:54:46.665Z,1280
2017-08-28T11:55:46.747Z,1840
2017-08-28T11:56:46.778Z,1700
2017-08-28T11:57:46.843Z,1880
2017-08-28T11:58:46.900Z,1792
2017-08-28T11:59:46.965Z,1956
2017-08-28T12:00:47.002Z,1748
2017-08-28T12:01:47.074Z,1872
2017-08-28T12:02:46.496Z,2224
2017-08-28T12:03:47.180Z,1868
2017-08-28T12:04:47.240Z,540
2017-08-28T12:05:47.300Z,316
2017-08-28T12:06:47.352Z,232
2017-08-28T12:07:47.102Z,180
2017-08-28T12:08:47.473Z,168
2017-08-28T12:09:47.523Z,200
2017-08-28T12:10:47.261Z,196
2017-08-28T12:11:47.630Z,168
2017-08-28T12:12:47.681Z,152
2017-08-28T12:13:47.437Z,168
2017-08-28T12:14:47.809Z,120
2017-08-28T12:15:47.237Z,132
2017-08-28T12:16:47.923Z,168
2017-08-28T12:17:47.658Z,208
2017-08-28T12:18:47.723Z,264
2017-08-28T12:19:48.085Z,216
2017-08-28T12:20:48.145Z,220
2017-08-28T12:21:47.884Z,244
2017-08-28T12:22:48.265Z,516
2017-08-28T12:23:48.310Z,360
2017-08-28T12:24:48.366Z,300
2017-08-28T12:25:48.432Z,328
2017-08-28T12:26:48.480Z,276
2017-08-28T12:27:48.541Z,236
2017-08-28T12:28:48.593Z,248
2017-08-28T12:29:48.336Z,284
2017-08-28T12:30:48.710Z,388
2017-08-28T12:31:48.765Z,468
2017-08-28T12:32:48.824Z,356
2017-08-28T12:33:48.564Z,396
2017-08-28T12:34:48.619Z,376
2017-08-28T12:35:48.981Z,400
2017-08-28T12:36:49.037Z,636
2017-08-28T12:37:48.788Z,1272
2017-08-28T12:38:49.156Z,556
2017-08-28T12:39:48.905Z,332
2017-08-28T12:40:48.954Z,244
2017-08-28T12:41:49.324Z,232
2017-08-28T12:42:49.376Z,224
2017-08-28T12:43:49.440Z,268
2017-08-28T12:44:49.190Z,280
2017-08-28T12:45:49.552Z,188
2017-08-28T12:46:49.617Z,212
2017-08-28T12:47:49.354Z,160
2017-08-28T12:48:49.729Z,216
2017-08-28T12:49:49.774Z,340
2017-08-28T12:50:49.830Z,524
2017-08-28T12:51:49.572Z,1088
2017-08-28T12:52:49.645Z,1056
2017-08-28T12:53:50.013Z,1324
2017-08-28T12:54:50.060Z,1032
2017-08-28T12:55:49.798Z,1332
2017-08-28T12:56:50.182Z,1132
2017-08-28T12:57:49.919Z,1360
2017-08-28T12:58:50.280Z,1244
2017-08-28T12:59:50.345Z,1488
2017-08-28T13:00:50.092Z,1556
2017-08-28T13:01:50.148Z,1628
2017-08-28T13:02:50.200Z,1632
2017-08-28T13:03:50.572Z,1588
2017-08-28T13:04:50.310Z,1456
2017-08-28T13:05:50.683Z,1468
2017-08-28T13:06:50.736Z,1400
2017-08-28T13:07:50.489Z,1456
2017-08-28T13:08:50.231Z,1372
2017-08-28T13:09:50.915Z,1320
2017-08-28T13:10:50.655Z,1440
2017-08-28T13:11:51.028Z,832
2017-08-28T13:12:50.770Z,536
2017-08-28T13:13:50.812Z,632
2017-08-28T13:14:50.887Z,608
2017-08-28T13:15:50.941Z,336
2017-08-28T13:16:51.295Z,272
2017-08-28T13:17:51.360Z,300
2017-08-28T13:18:51.419Z,332
2017-08-28T13:19:51.474Z,380
2017-08-28T13:20:51.533Z,348
2017-08-28T13:21:50.962Z,1032
2017-08-28T13:22:51.639Z,556
2017-08-28T13:23:51.688Z,260
2017-08-28T13:24:51.765Z,204
2017-08-28T13:25:51.815Z,220
2017-08-28T13:26:51.559Z,240
2017-08-28T13:27:51.926Z,308
2017-08-28T13:28:51.667Z,204
2017-08-28T13:29:52.039Z,164
2017-08-28T13:30:51.784Z,168
2017-08-28T13:31:51.838Z,160
2017-08-28T13:32:51.902Z,156
2017-08-28T13:33:51.953Z,132
2017-08-28T13:34:52.310Z,96
2017-08-28T13:35:52.381Z,104
2017-08-28T13:36:52.430Z,104
2017-08-28T13:37:52.491Z,88
2017-08-28T13:38:52.562Z,64
2017-08-28T13:39:52.604Z,72
2017-08-28T13:40:52.038Z,88
2017-08-28T13:41:52.087Z,72
2017-08-28T13:42:52.459Z,120
2017-08-28T13:43:52.507Z,148
2017-08-28T13:44:52.878Z,168
2017-08-28T13:45:52.937Z,132
2017-08-28T13:46:53.000Z,128
2017-08-28T13:47:53.053Z,132
2017-08-28T13:48:53.105Z,100
2017-08-28T13:49:52.854Z,100
2017-08-28T13:50:52.914Z,136
2017-08-28T13:51:52.970Z,164
2017-08-28T13:52:53.333Z,264
2017-08-28T13:53:53.074Z,220
2017-08-28T13:54:53.456Z,256
2017-08-28T13:55:53.194Z,244
2017-08-28T13:56:53.564Z,236
2017-08-28T13:57:53.313Z,248
2017-08-28T13:58:53.675Z,316
2017-08-28T13:59:53.734Z,348
2017-08-28T14:00:53.783Z,344
2017-08-28T14:01:53.532Z,464
2017-08-28T14:02:53.891Z,336
2017-08-28T14:03:53.949Z,220
2017-08-28T14:04:53.698Z,216
2017-08-28T14:05:54.062Z,196